Time;durP1;ratioP1;P1;durP2;ratioP2;P2;SDS_P1;SDS_P2;PMS_P1;PMS_P2;Temp;Humidity;BMP_temperature;BMP_pressure;BME280_temperature;BME280_humidity;BME280_pressure;Samples;Min_cycle;Max_cycle;Signal;HPM_P1;HPM_P2
2022/04/23 00:02:01;;;;;;;6.65;2.75;;;;;;;;;;5039052;28;20403;-65
2022/04/23 00:04:30;;;;;;;8.00;2.17;;;;;;;;;;5040141;28;20418;-65
2022/04/23 00:06:57;;;;;;;7.10;2.03;;;;;;;;;;5040244;28;20041;-65
2022/04/23 00:09:23;;;;;;;7.32;2.08;;;;;;;;;;5041756;28;20033;-65
2022/04/23 00:11:48;;;;;;;6.47;2.10;;;;;;;;;;5040492;28;20389;-65
2022/04/23 00:14:14;;;;;;;8.43;2.35;;;;;;;;;;5047675;28;20037;-65
2022/04/23 00:16:40;;;;;;;4.80;2.25;;;;;;;;;;5038690;28;20484;-66
2022/04/23 00:19:06;;;;;;;6.72;2.30;;;;;;;;;;5035534;28;20128;-66
2022/04/23 00:21:32;;;;;;;5.75;2.70;;;;;;;;;;5040243;28;20026;-65
2022/04/23 00:23:57;;;;;;;5.78;2.30;;;;;;;;;;5037711;28;20033;-66
2022/04/23 00:26:23;;;;;;;5.53;2.78;;;;;;;;;;5036752;28;20431;-66
2022/04/23 00:28:49;;;;;;;6.20;2.28;;;;;;;;;;5037972;28;20044;-65
2022/04/23 00:31:15;;;;;;;6.68;2.50;;;;;;;;;;5036170;28;20629;-65
2022/04/23 00:33:40;;;;;;;8.32;2.65;;;;;;;;;;5043554;28;20038;-66
2022/04/23 00:36:09;;;;;;;5.63;2.40;;;;;;;;;;5034637;28;20501;-67
2022/04/23 00:38:40;;;;;;;6.07;2.20;;;;;;;;;;5034708;28;20033;-66
2022/04/23 00:41:07;;;;;;;7.18;2.17;;;;;;;;;;5040134;28;20056;-65
2022/04/23 00:43:36;;;;;;;8.60;2.65;;;;;;;;;;5035705;28;20052;-65
2022/04/23 00:46:03;;;;;;;11.30;2.63;;;;;;;;;;5039177;28;20033;-66
2022/04/23 00:48:30;;;;;;;10.48;2.47;;;;;;;;;;5043913;28;20059;-65
2022/04/23 00:50:58;;;;;;;9.55;2.50;;;;;;;;;;5041706;28;20039;-65
2022/04/23 00:53:24;;;;;;;4.75;1.80;;;;;;;;;;5034977;28;20099;-65
2022/04/23 00:55:52;;;;;;;6.15;2.20;;;;;;;;;;5034020;28;20425;-66
2022/04/23 00:58:19;;;;;;;9.80;2.15;;;;;;;;;;5037047;28;20032;-65
2022/04/23 01:00:45;;;;;;;7.80;2.17;;;;;;;;;;5040374;28;20045;-66
2022/04/23 01:03:12;;;;;;;8.38;2.22;;;;;;;;;;5040423;28;20119;-66
2022/04/23 01:05:46;;;;;;;6.78;2.22;;;;;;;;;;5041809;28;20021;-65
2022/04/23 01:08:15;;;;;;;7.85;1.98;;;;;;;;;;5031656;28;20140;-65
2022/04/23 01:10:44;;;;;;;6.68;2.33;;;;;;;;;;5038115;28;20044;-66
2022/04/23 01:13:16;;;;;;;9.27;2.65;;;;;;;;;;5035452;28;20449;-65
2022/04/23 01:16:02;;;;;;;7.00;2.25;;;;;;;;;;5038834;28;20232;-66
2022/04/23 01:18:28;;;;;;;8.25;2.28;;;;;;;;;;5038294;28;20052;-66
2022/04/23 01:20:56;;;;;;;11.25;2.33;;;;;;;;;;5040095;28;20043;-65
2022/04/23 01:23:22;;;;;;;9.75;2.30;;;;;;;;;;5047571;28;20029;-65
2022/04/23 01:25:52;;;;;;;11.30;2.50;;;;;;;;;;5038123;28;20383;-66
2022/04/23 01:28:23;;;;;;;9.35;2.42;;;;;;;;;;5044919;28;20061;-65
2022/04/23 01:30:54;;;;;;;2.85;2.00;;;;;;;;;;5039030;28;20025;-66
2022/04/23 01:33:21;;;;;;;6.75;2.85;;;;;;;;;;5033826;28;20025;-66
2022/04/23 01:35:47;;;;;;;9.43;2.92;;;;;;;;;;5070304;28;20025;-67
2022/04/23 01:38:13;;;;;;;10.45;2.67;;;;;;;;;;5045005;28;20029;-66
2022/04/23 01:40:39;;;;;;;6.05;2.47;;;;;;;;;;5036164;28;20029;-66
2022/04/23 01:43:05;;;;;;;9.32;2.55;;;;;;;;;;5038636;28;20864;-66
2022/04/23 01:45:31;;;;;;;11.73;3.22;;;;;;;;;;5037307;28;20036;-66
2022/04/23 01:47:57;;;;;;;9.27;2.63;;;;;;;;;;5039205;28;20033;-66
2022/04/23 01:50:23;;;;;;;8.40;3.05;;;;;;;;;;5036493;28;20549;-66
2022/04/23 01:52:49;;;;;;;5.40;2.53;;;;;;;;;;5036245;28;20195;-66
2022/04/23 01:55:15;;;;;;;8.13;2.72;;;;;;;;;;5039059;28;20040;-66
2022/04/23 01:57:41;;;;;;;5.38;2.63;;;;;;;;;;5040349;28;20415;-66
2022/04/23 02:00:10;;;;;;;7.90;3.00;;;;;;;;;;5042077;28;20040;-66
2022/04/23 02:02:39;;;;;;;7.18;2.60;;;;;;;;;;5037565;28;20029;-66
2022/04/23 02:05:07;;;;;;;7.03;2.70;;;;;;;;;;5036222;28;20393;-66
2022/04/23 02:07:43;;;;;;;10.30;3.28;;;;;;;;;;5038129;28;20470;-65
2022/04/23 02:10:14;;;;;;;8.38;2.75;;;;;;;;;;5037957;28;20053;-66
2022/04/23 02:12:41;;;;;;;10.85;2.60;;;;;;;;;;5042570;28;20033;-66
2022/04/23 02:15:12;;;;;;;5.18;2.90;;;;;;;;;;5043561;28;20060;-65
2022/04/23 02:17:40;;;;;;;6.30;2.80;;;;;;;;;;5036009;28;20029;-65
2022/04/23 02:20:08;;;;;;;8.77;3.33;;;;;;;;;;5036671;28;20919;-66
2022/04/23 02:22:34;;;;;;;7.47;2.72;;;;;;;;;;5037610;28;20054;-65
2022/04/23 02:25:00;;;;;;;6.32;2.50;;;;;;;;;;5038238;28;20025;-65
2022/04/23 02:27:27;;;;;;;8.60;2.88;;;;;;;;;;5041021;28;20037;-66
2022/04/23 02:29:54;;;;;;;4.47;2.67;;;;;;;;;;5041094;28;20160;-65
2022/04/23 02:32:20;;;;;;;10.90;2.60;;;;;;;;;;5032429;28;20033;-65
2022/04/23 02:34:47;;;;;;;4.43;2.50;;;;;;;;;;5038204;28;20038;-66
2022/04/23 02:37:13;;;;;;;7.97;2.55;;;;;;;;;;5040013;28;20505;-66
2022/04/23 02:39:39;;;;;;;5.60;2.20;;;;;;;;;;5038775;28;20040;-66
2022/04/23 02:42:07;;;;;;;4.22;2.28;;;;;;;;;;5037518;28;20539;-66
2022/04/23 02:44:34;;;;;;;4.25;1.95;;;;;;;;;;5041015;28;20044;-66
2022/04/23 02:47:00;;;;;;;5.35;2.75;;;;;;;;;;5033566;28;20119;-66
2022/04/23 02:49:26;;;;;;;6.82;2.88;;;;;;;;;;5038466;28;20069;-67
2022/04/23 02:51:51;;;;;;;7.20;2.63;;;;;;;;;;5031612;28;20118;-66
2022/04/23 02:54:18;;;;;;;8.40;3.15;;;;;;;;;;5035769;28;20041;-66
2022/04/23 02:56:45;;;;;;;14.23;3.22;;;;;;;;;;5039052;28;20053;-66
2022/04/23 02:59:12;;;;;;;7.60;3.30;;;;;;;;;;5033712;28;20056;-66
2022/04/23 03:01:39;;;;;;;7.50;3.13;;;;;;;;;;5038886;28;20045;-66
2022/04/23 03:04:05;;;;;;;10.40;2.90;;;;;;;;;;5033919;28;20028;-66
2022/04/23 03:06:31;;;;;;;13.65;2.83;;;;;;;;;;5037927;28;20039;-66
2022/04/23 03:08:57;;;;;;;18.13;3.17;;;;;;;;;;5039573;28;20072;-66
2022/04/23 03:11:23;;;;;;;14.77;3.72;;;;;;;;;;5031568;28;20847;-66
2022/04/23 03:13:48;;;;;;;18.58;4.47;;;;;;;;;;5037492;28;20034;-66
2022/04/23 03:16:14;;;;;;;18.95;4.45;;;;;;;;;;5035414;28;20013;-67
2022/04/23 03:18:40;;;;;;;22.05;4.45;;;;;;;;;;5042341;28;20060;-66
2022/04/23 03:21:06;;;;;;;21.27;4.32;;;;;;;;;;5033829;28;20087;-66
2022/04/23 03:23:32;;;;;;;21.23;4.53;;;;;;;;;;5034680;28;20021;-66
2022/04/23 03:25:59;;;;;;;24.48;5.10;;;;;;;;;;5038184;28;20025;-66
2022/04/23 03:28:25;;;;;;;26.08;5.47;;;;;;;;;;5034037;28;20041;-66
2022/04/23 03:30:51;;;;;;;30.05;5.63;;;;;;;;;;5036902;28;20091;-66
2022/04/23 03:33:16;;;;;;;27.27;5.10;;;;;;;;;;5038772;28;20052;-66
2022/04/23 03:35:42;;;;;;;25.55;5.05;;;;;;;;;;5045850;28;20032;-66
2022/04/23 03:38:09;;;;;;;24.30;5.85;;;;;;;;;;5035967;28;20030;-66
2022/04/23 03:40:36;;;;;;;32.05;4.88;;;;;;;;;;5039851;28;20386;-66
2022/04/23 03:43:02;;;;;;;23.88;5.05;;;;;;;;;;5039257;28;20108;-66
2022/04/23 03:45:29;;;;;;;27.73;5.72;;;;;;;;;;5040438;28;20029;-66
2022/04/23 03:47:55;;;;;;;22.83;4.72;;;;;;;;;;5040840;28;20041;-66
2022/04/23 03:50:21;;;;;;;20.45;4.57;;;;;;;;;;5041506;28;20032;-66
2022/04/23 03:52:47;;;;;;;25.90;5.38;;;;;;;;;;5044622;28;20040;-66
2022/04/23 03:55:13;;;;;;;26.60;4.65;;;;;;;;;;5042196;28;20052;-67
2022/04/23 03:57:44;;;;;;;22.17;4.68;;;;;;;;;;5038967;28;20030;-66
2022/04/23 04:00:10;;;;;;;32.42;5.88;;;;;;;;;;5037435;28;20041;-66
2022/04/23 04:02:36;;;;;;;19.80;4.65;;;;;;;;;;5039183;28;20025;-66
2022/04/23 04:05:02;;;;;;;30.42;4.93;;;;;;;;;;5038866;28;20021;-67
2022/04/23 04:07:28;;;;;;;29.42;5.30;;;;;;;;;;5040214;28;20105;-69
2022/04/23 04:09:53;;;;;;;27.95;5.40;;;;;;;;;;5036927;28;20025;-68
2022/04/23 04:12:19;;;;;;;26.58;5.40;;;;;;;;;;5036767;28;20049;-68
2022/04/23 04:14:45;;;;;;;24.02;4.75;;;;;;;;;;5037251;28;20041;-68
2022/04/23 04:17:14;;;;;;;23.10;4.93;;;;;;;;;;5036804;28;20025;-69
2022/04/23 04:19:40;;;;;;;28.08;5.95;;;;;;;;;;5035845;28;20033;-68
2022/04/23 04:22:09;;;;;;;28.45;5.20;;;;;;;;;;5039686;28;20048;-69
2022/04/23 04:24:35;;;;;;;26.65;5.45;;;;;;;;;;5039156;28;20033;-69
2022/04/23 04:27:01;;;;;;;32.20;5.78;;;;;;;;;;5043505;28;20029;-69
2022/04/23 04:29:28;;;;;;;25.05;4.72;;;;;;;;;;5039936;28;20111;-69
2022/04/23 04:31:54;;;;;;;24.70;4.72;;;;;;;;;;5034530;28;20032;-69
2022/04/23 04:34:24;;;;;;;27.52;5.70;;;;;;;;;;5044200;28;20037;-69
2022/04/23 04:36:59;;;;;;;27.52;5.70;;;;;;;;;;5038904;28;20824;-69
2022/04/23 04:39:25;;;;;;;22.90;5.53;;;;;;;;;;5039408;28;20072;-70
2022/04/23 04:41:50;;;;;;;30.77;5.40;;;;;;;;;;5041152;28;20122;-70
2022/04/23 04:44:16;;;;;;;20.27;5.07;;;;;;;;;;5043688;28;20037;-69
2022/04/23 04:46:42;;;;;;;26.08;4.70;;;;;;;;;;5040119;28;20120;-70
2022/04/23 04:49:08;;;;;;;21.40;5.38;;;;;;;;;;5037341;28;20029;-69
2022/04/23 04:51:36;;;;;;;23.05;5.22;;;;;;;;;;5038894;28;20031;-69
2022/04/23 04:54:04;;;;;;;24.73;5.68;;;;;;;;;;5045687;28;20452;-69
2022/04/23 04:56:30;;;;;;;29.05;5.85;;;;;;;;;;5035264;28;20041;-69
2022/04/23 04:58:56;;;;;;;32.13;5.63;;;;;;;;;;5036688;28;20484;-70
2022/04/23 05:01:21;;;;;;;27.85;4.88;;;;;;;;;;5039287;28;20043;-70
2022/04/23 05:03:47;;;;;;;31.98;5.95;;;;;;;;;;5040552;28;20529;-70
2022/04/23 05:06:13;;;;;;;22.92;4.80;;;;;;;;;;5037240;28;20026;-70
2022/04/23 05:08:39;;;;;;;25.30;5.50;;;;;;;;;;5034284;28;20026;-70
2022/04/23 05:11:05;;;;;;;24.10;5.38;;;;;;;;;;5037047;28;20394;-70
2022/04/23 05:13:31;;;;;;;20.80;4.80;;;;;;;;;;5035101;28;20087;-70
2022/04/23 05:15:58;;;;;;;27.90;5.32;;;;;;;;;;5036821;28;20033;-70
2022/04/23 05:18:24;;;;;;;24.17;4.90;;;;;;;;;;5033069;28;20032;-70
2022/04/23 05:20:50;;;;;;;28.38;5.15;;;;;;;;;;5038074;28;20040;-70
2022/04/23 05:23:16;;;;;;;24.10;5.10;;;;;;;;;;5036070;28;20122;-69
2022/04/23 05:25:41;;;;;;;21.17;4.55;;;;;;;;;;5037983;28;20033;-70
2022/04/23 05:28:08;;;;;;;24.75;5.30;;;;;;;;;;5036241;28;20034;-70
2022/04/23 05:30:37;;;;;;;25.80;5.22;;;;;;;;;;5038189;28;20029;-70
2022/04/23 05:33:06;;;;;;;30.75;5.47;;;;;;;;;;5036342;28;20116;-68
2022/04/23 05:35:33;;;;;;;19.50;4.88;;;;;;;;;;5035940;28;20039;-70
2022/04/23 05:37:58;;;;;;;20.92;4.68;;;;;;;;;;5037363;28;20087;-69
2022/04/23 05:40:24;;;;;;;27.50;5.05;;;;;;;;;;5038690;28;20041;-69
2022/04/23 05:42:50;;;;;;;21.50;4.53;;;;;;;;;;5036327;28;20051;-70
2022/04/23 05:45:16;;;;;;;23.02;5.53;;;;;;;;;;5035202;28;20041;-68
2022/04/23 05:47:42;;;;;;;36.97;5.63;;;;;;;;;;5038601;28;20547;-69
2022/04/23 05:50:08;;;;;;;26.92;5.45;;;;;;;;;;5035391;28;20036;-70
2022/04/23 05:52:37;;;;;;;24.48;5.13;;;;;;;;;;5035250;28;20056;-70
2022/04/23 05:55:07;;;;;;;24.00;5.07;;;;;;;;;;5036046;28;20045;-69
2022/04/23 05:57:33;;;;;;;18.40;4.68;;;;;;;;;;5032548;28;20037;-69
2022/04/23 05:59:58;;;;;;;19.40;4.50;;;;;;;;;;5042206;28;20052;-69
2022/04/23 06:02:24;;;;;;;24.38;4.80;;;;;;;;;;5039640;28;20025;-69
2022/04/23 06:04:50;;;;;;;19.35;4.35;;;;;;;;;;5036778;28;20017;-69
2022/04/23 06:07:16;;;;;;;21.88;4.70;;;;;;;;;;5036445;28;20037;-69
2022/04/23 06:09:42;;;;;;;22.75;5.07;;;;;;;;;;5042084;28;20060;-68
2022/04/23 06:12:08;;;;;;;20.17;4.00;;;;;;;;;;5043936;28;20069;-69
2022/04/23 06:14:35;;;;;;;24.80;5.15;;;;;;;;;;5042160;28;20030;-69
2022/04/23 06:17:00;;;;;;;23.15;4.70;;;;;;;;;;5039393;28;20018;-68
2022/04/23 06:19:31;;;;;;;27.55;4.82;;;;;;;;;;5038176;28;20055;-69
2022/04/23 06:21:59;;;;;;;20.55;4.15;;;;;;;;;;5037278;28;20029;-70
2022/04/23 06:24:26;;;;;;;21.45;4.50;;;;;;;;;;5041515;28;20036;-69
2022/04/23 06:26:52;;;;;;;19.38;4.57;;;;;;;;;;5042000;28;20583;-69
2022/04/23 06:29:17;;;;;;;27.85;5.18;;;;;;;;;;5032558;28;20048;-68
2022/04/23 06:31:44;;;;;;;26.63;5.60;;;;;;;;;;5044857;28;21046;-69
2022/04/23 06:34:10;;;;;;;29.33;5.03;;;;;;;;;;5040840;28;20417;-68
2022/04/23 06:36:40;;;;;;;21.00;4.00;;;;;;;;;;5039607;28;20448;-69
2022/04/23 06:39:06;;;;;;;18.48;4.35;;;;;;;;;;5036111;28;20059;-69
2022/04/23 06:41:32;;;;;;;23.55;4.55;;;;;;;;;;5038777;28;20025;-68
2022/04/23 06:43:58;;;;;;;19.70;3.97;;;;;;;;;;5041137;28;20029;-68
2022/04/23 06:46:24;;;;;;;28.05;4.32;;;;;;;;;;5038657;28;20108;-69
2022/04/23 06:48:50;;;;;;;20.27;4.38;;;;;;;;;;5037847;28;20025;-69
2022/04/23 06:51:16;;;;;;;21.67;4.43;;;;;;;;;;5034218;28;20030;-69
2022/04/23 06:53:42;;;;;;;20.55;4.03;;;;;;;;;;5033742;28;20037;-67
2022/04/23 06:56:08;;;;;;;21.80;5.03;;;;;;;;;;5039656;28;20547;-68
2022/04/23 06:58:34;;;;;;;32.95;5.15;;;;;;;;;;5033070;28;21331;-67
2022/04/23 07:01:01;;;;;;;20.38;4.57;;;;;;;;;;5038244;28;20049;-67
2022/04/23 07:03:27;;;;;;;20.98;5.00;;;;;;;;;;5039735;28;20075;-67
2022/04/23 07:05:53;;;;;;;23.90;4.05;;;;;;;;;;5036974;28;20028;-68
2022/04/23 07:08:19;;;;;;;24.35;3.80;;;;;;;;;;5041327;28;20036;-67
2022/04/23 07:10:45;;;;;;;19.40;4.45;;;;;;;;;;5047640;28;20171;-68
2022/04/23 07:13:11;;;;;;;22.00;4.38;;;;;;;;;;5041218;28;20034;-68
2022/04/23 07:15:39;;;;;;;22.23;4.55;;;;;;;;;;5038726;28;20029;-67
2022/04/23 07:18:06;;;;;;;30.92;5.55;;;;;;;;;;5035421;28;20038;-69
2022/04/23 07:20:32;;;;;;;30.35;5.00;;;;;;;;;;5039814;28;20083;-68
2022/04/23 07:25:42;;;;;;;23.08;4.60;;;;;;;;;;5040185;28;20033;-67
2022/04/23 07:28:08;;;;;;;24.73;4.45;;;;;;;;;;5045312;28;20029;-66
2022/04/23 07:30:35;;;;;;;24.35;4.25;;;;;;;;;;5040098;28;20052;-66
2022/04/23 07:33:01;;;;;;;20.75;3.90;;;;;;;;;;5041378;28;20398;-67
2022/04/23 07:38:17;;;;;;;19.25;3.97;;;;;;;;;;5037658;28;20052;-66
2022/04/23 07:40:47;;;;;;;23.85;4.95;;;;;;;;;;5037461;28;20056;-66
2022/04/23 07:43:14;;;;;;;23.88;4.93;;;;;;;;;;5039022;28;20036;-66
2022/04/23 07:45:42;;;;;;;24.27;4.45;;;;;;;;;;5040469;28;20025;-66
2022/04/23 07:48:09;;;;;;;28.58;4.53;;;;;;;;;;5039314;28;20056;-67
2022/04/23 07:50:38;;;;;;;29.90;4.35;;;;;;;;;;5036392;28;20045;-67
2022/04/23 07:53:04;;;;;;;21.48;4.13;;;;;;;;;;5034962;28;20041;-67
2022/04/23 07:55:36;;;;;;;21.95;4.72;;;;;;;;;;5038231;28;20029;-66
2022/04/23 07:58:04;;;;;;;17.17;3.97;;;;;;;;;;5041135;28;20750;-66
2022/04/23 08:00:31;;;;;;;19.92;4.53;;;;;;;;;;5041303;28;20238;-67
2022/04/23 08:03:03;;;;;;;27.08;4.85;;;;;;;;;;5040950;28;20033;-67
2022/04/23 08:05:35;;;;;;;20.30;4.90;;;;;;;;;;5038207;28;20032;-66
2022/04/23 08:08:02;;;;;;;19.65;4.72;;;;;;;;;;5039654;28;20029;-67
2022/04/23 08:10:27;;;;;;;24.30;4.55;;;;;;;;;;5034940;28;20121;-67
2022/04/23 08:12:56;;;;;;;24.17;4.88;;;;;;;;;;5044398;28;20116;-67
2022/04/23 08:15:23;;;;;;;22.58;5.10;;;;;;;;;;5038029;28;20037;-68
2022/04/23 08:17:49;;;;;;;21.85;4.57;;;;;;;;;;5068637;28;20025;-67
2022/04/23 08:20:15;;;;;;;30.90;4.47;;;;;;;;;;5038182;28;20036;-67
2022/04/23 08:22:41;;;;;;;28.35;4.60;;;;;;;;;;5037515;28;20032;-68
2022/04/23 08:25:07;;;;;;;26.30;4.95;;;;;;;;;;5047679;28;20116;-68
2022/04/23 08:27:55;;;;;;;18.55;4.35;;;;;;;;;;5039530;28;20383;-67
2022/04/23 08:30:34;;;;;;;18.95;5.20;;;;;;;;;;5039661;28;20701;-68
2022/04/23 08:33:03;;;;;;;18.48;3.90;;;;;;;;;;5037671;28;20028;-67
2022/04/23 08:35:30;;;;;;;20.95;4.65;;;;;;;;;;5041312;28;20030;-68
2022/04/23 08:37:56;;;;;;;27.13;4.93;;;;;;;;;;5034792;28;20029;-68
2022/04/23 08:40:23;;;;;;;21.50;4.75;;;;;;;;;;5035762;28;20082;-69
2022/04/23 08:42:48;;;;;;;24.17;4.60;;;;;;;;;;5036795;28;20025;-67
2022/04/23 08:45:14;;;;;;;23.95;4.85;;;;;;;;;;5034871;28;20424;-67
2022/04/23 08:47:47;;;;;;;24.65;5.05;;;;;;;;;;5040299;28;20033;-68
2022/04/23 08:50:14;;;;;;;19.92;3.90;;;;;;;;;;5036420;28;20116;-67
2022/04/23 08:52:48;;;;;;;22.92;4.50;;;;;;;;;;5040022;28;20029;-67
2022/04/23 08:55:16;;;;;;;19.98;4.32;;;;;;;;;;5038259;28;20044;-67
2022/04/23 08:57:43;;;;;;;26.58;5.43;;;;;;;;;;5039574;28;20025;-67
2022/04/23 09:00:14;;;;;;;22.58;5.45;;;;;;;;;;5040767;28;20037;-67
2022/04/23 09:02:41;;;;;;;24.60;4.88;;;;;;;;;;5042012;28;20474;-68
2022/04/23 09:05:07;;;;;;;18.85;4.47;;;;;;;;;;5036486;28;20040;-67
2022/04/23 09:07:34;;;;;;;20.17;4.88;;;;;;;;;;5040727;28;20036;-67
2022/04/23 09:10:00;;;;;;;20.88;4.45;;;;;;;;;;5045303;28;20470;-68
2022/04/23 09:12:27;;;;;;;18.63;4.15;;;;;;;;;;5041554;28;20149;-66
2022/04/23 09:15:04;;;;;;;20.27;4.38;;;;;;;;;;5036211;28;20040;-66
2022/04/23 09:25:44;;;;;;;23.38;4.43;;;;;;;;;;5037999;28;20071;-65
2022/04/23 09:28:23;;;;;;;18.65;4.18;;;;;;;;;;5038734;28;20104;-65
2022/04/23 09:30:52;;;;;;;18.48;3.95;;;;;;;;;;5039768;28;20047;-65
2022/04/23 09:33:21;;;;;;;29.63;4.75;;;;;;;;;;5035756;28;20029;-66
2022/04/23 09:35:57;;;;;;;18.40;3.67;;;;;;;;;;5039339;28;20114;-66
2022/04/23 09:38:24;;;;;;;20.58;4.70;;;;;;;;;;5042438;28;20025;-67
2022/04/23 09:41:18;;;;;;;21.48;3.88;;;;;;;;;;5035563;28;20557;-65
2022/04/23 09:43:48;;;;;;;18.30;4.20;;;;;;;;;;5043057;28;20041;-66
2022/04/23 09:46:14;;;;;;;26.85;5.00;;;;;;;;;;5032981;28;20101;-66
2022/04/23 09:48:43;;;;;;;15.77;4.22;;;;;;;;;;5035466;28;20432;-66
2022/04/23 09:51:29;;;;;;;23.58;4.05;;;;;;;;;;5037533;28;20425;-66
2022/04/23 09:53:55;;;;;;;24.35;5.13;;;;;;;;;;5037770;28;20051;-66
2022/04/23 09:56:25;;;;;;;18.85;4.32;;;;;;;;;;5039579;28;20031;-66
2022/04/23 09:58:52;;;;;;;19.92;4.53;;;;;;;;;;5036857;28;20147;-66
2022/04/23 10:01:22;;;;;;;21.23;4.88;;;;;;;;;;5038679;28;20049;-66
2022/04/23 10:03:53;;;;;;;23.63;5.82;;;;;;;;;;5038508;28;20035;-66
2022/04/23 10:06:23;;;;;;;21.88;4.80;;;;;;;;;;5035465;28;20025;-66
2022/04/23 10:08:52;;;;;;;26.45;6.00;;;;;;;;;;5036771;28;20029;-66
2022/04/23 10:11:28;;;;;;;23.25;4.53;;;;;;;;;;5037464;28;20110;-66
2022/04/23 10:13:59;;;;;;;24.63;5.25;;;;;;;;;;5037897;28;20124;-66
2022/04/23 10:16:27;;;;;;;26.10;4.88;;;;;;;;;;5040533;28;20047;-66
2022/04/23 10:18:55;;;;;;;24.63;4.95;;;;;;;;;;5034412;28;20037;-65
2022/04/23 10:21:34;;;;;;;19.95;4.88;;;;;;;;;;5036396;28;20125;-65
2022/04/23 10:24:07;;;;;;;25.13;5.10;;;;;;;;;;5038057;28;20033;-66
2022/04/23 10:26:49;;;;;;;24.00;5.32;;;;;;;;;;5038977;28;20056;-65
2022/04/23 10:29:20;;;;;;;19.40;4.72;;;;;;;;;;5034426;28;20033;-66
2022/04/23 10:32:11;;;;;;;24.90;5.05;;;;;;;;;;5032556;28;20179;-66
2022/04/23 10:34:38;;;;;;;31.55;5.40;;;;;;;;;;5032963;28;20104;-65
2022/04/23 10:37:22;;;;;;;25.65;5.05;;;;;;;;;;5033635;28;20510;-66
2022/04/23 10:39:51;;;;;;;22.75;4.45;;;;;;;;;;5035685;28;20501;-65
2022/04/23 10:42:22;;;;;;;17.48;3.70;;;;;;;;;;5038496;28;20026;-66
2022/04/23 10:44:50;;;;;;;27.90;5.15;;;;;;;;;;5035052;28;20029;-66
2022/04/23 10:47:35;;;;;;;23.95;5.03;;;;;;;;;;5038384;28;20029;-65
2022/04/23 10:50:18;;;;;;;33.22;5.13;;;;;;;;;;5046078;28;20033;-63
2022/04/23 10:52:44;;;;;;;24.95;4.68;;;;;;;;;;5039143;28;20079;-64
2022/04/23 10:55:12;;;;;;;26.55;5.32;;;;;;;;;;5040437;28;20040;-64
2022/04/23 10:57:39;;;;;;;20.75;4.30;;;;;;;;;;5035593;28;20056;-64
2022/04/23 11:00:41;;;;;;;33.88;5.63;;;;;;;;;;5038110;28;20044;-62
2022/04/23 11:03:08;;;;;;;;;;;;;;;;;;5037742;28;20090;-64
2022/04/23 11:13:54;;;;;;;26.45;5.15;;;;;;;;;;5037252;28;20536;-65
2022/04/23 11:16:21;;;;;;;24.65;5.00;;;;;;;;;;5034983;28;20482;-64
2022/04/23 11:18:52;;;;;;;21.80;5.03;;;;;;;;;;5039667;28;20043;-64
2022/04/23 11:21:23;;;;;;;27.17;5.47;;;;;;;;;;5033992;28;20509;-64
2022/04/23 11:23:50;;;;;;;32.42;5.57;;;;;;;;;;5039457;28;20039;-64
2022/04/23 11:26:18;;;;;;;24.08;5.35;;;;;;;;;;5036430;28;20114;-64
2022/04/23 11:28:57;;;;;;;28.88;5.75;;;;;;;;;;5036345;28;20611;-64
2022/04/23 11:31:24;;;;;;;28.63;5.85;;;;;;;;;;5039379;28;20060;-65
2022/04/23 11:33:56;;;;;;;26.63;5.25;;;;;;;;;;5040106;28;20448;-64
2022/04/23 11:36:34;;;;;;;29.15;5.38;;;;;;;;;;5036473;28;20390;-63
2022/04/23 11:39:10;;;;;;;31.15;4.63;;;;;;;;;;5035500;28;20025;-64
2022/04/23 11:41:50;;;;;;;22.98;5.57;;;;;;;;;;5037807;28;20570;-65
2022/04/23 11:47:05;;;;;;;25.88;5.72;;;;;;;;;;5039012;28;20544;-64
2022/04/23 11:49:31;;;;;;;28.13;4.88;;;;;;;;;;5033047;28;20041;-64
2022/04/23 11:52:00;;;;;;;27.42;5.28;;;;;;;;;;5035131;28;20055;-64
2022/04/23 11:54:43;;;;;;;32.72;6.85;;;;;;;;;;5038031;28;20069;-64
2022/04/23 11:57:17;;;;;;;30.52;5.43;;;;;;;;;;5041212;28;20688;-64
2022/04/23 11:59:48;;;;;;;32.03;6.25;;;;;;;;;;5037841;28;20035;-64
2022/04/23 12:02:21;;;;;;;27.38;5.88;;;;;;;;;;5041679;28;20051;-63
2022/04/23 12:04:49;;;;;;;32.25;7.03;;;;;;;;;;5042593;28;20021;-64
2022/04/23 12:07:15;;;;;;;29.95;6.25;;;;;;;;;;5043495;28;20030;-65
2022/04/23 12:09:51;;;;;;;24.83;5.45;;;;;;;;;;5038778;28;20355;-66
2022/04/23 12:12:19;;;;;;;31.13;6.35;;;;;;;;;;5040268;28;20052;-66
2022/04/23 12:14:50;;;;;;;34.33;5.97;;;;;;;;;;5035736;28;20045;-67
2022/04/23 12:17:23;;;;;;;32.65;6.82;;;;;;;;;;5047513;28;20561;-65
2022/04/23 12:19:50;;;;;;;36.42;7.05;;;;;;;;;;5036739;28;20037;-66
2022/04/23 12:22:27;;;;;;;26.85;6.82;;;;;;;;;;5042856;28;20029;-66
2022/04/23 12:25:16;;;;;;;32.90;7.18;;;;;;;;;;5040030;28;20483;-66
2022/04/23 12:41:59;;;;;;;30.38;7.10;;;;;;;;;;5037117;28;20490;-64
2022/04/23 12:44:42;;;;;;;26.92;5.75;;;;;;;;;;5034078;28;20033;-64
2022/04/23 12:47:13;;;;;;;24.95;5.72;;;;;;;;;;5038344;28;20064;-64
2022/04/23 12:49:50;;;;;;;36.97;6.45;;;;;;;;;;5036350;28;20036;-65
2022/04/23 12:52:21;;;;;;;33.10;6.65;;;;;;;;;;5043679;28;20052;-64
2022/04/23 12:55:13;;;;;;;29.50;6.00;;;;;;;;;;5038318;28;20042;-63
2022/04/23 12:57:43;;;;;;;30.73;6.17;;;;;;;;;;5036744;28;20036;-65
2022/04/23 13:00:13;;;;;;;31.70;5.97;;;;;;;;;;5039230;28;20034;-66
2022/04/23 13:02:40;;;;;;;39.42;6.45;;;;;;;;;;5035911;28;20030;-65
2022/04/23 13:05:08;;;;;;;25.17;5.85;;;;;;;;;;5036299;28;20022;-66
2022/04/23 13:10:19;;;;;;;32.47;5.18;;;;;;;;;;5035983;28;20040;-66
2022/04/23 13:12:45;;;;;;;24.10;4.63;;;;;;;;;;5040006;28;20470;-67
2022/04/23 13:15:11;;;;;;;27.35;4.28;;;;;;;;;;5035427;28;20036;-67
2022/04/23 13:17:38;;;;;;;30.02;4.20;;;;;;;;;;5036604;28;20025;-66
2022/04/23 13:20:06;;;;;;;29.70;5.18;;;;;;;;;;5039072;28;20025;-66
2022/04/23 13:22:33;;;;;;;25.45;5.45;;;;;;;;;;5039584;28;20029;-67
2022/04/23 13:24:58;;;;;;;31.58;5.28;;;;;;;;;;5035307;28;20411;-67
2022/04/23 13:27:24;;;;;;;38.55;5.13;;;;;;;;;;5043215;28;20032;-68
2022/04/23 13:29:52;;;;;;;32.15;4.93;;;;;;;;;;5040554;28;20040;-66
2022/04/23 13:32:18;;;;;;;42.17;5.75;;;;;;;;;;5037950;28;20047;-67
2022/04/23 13:34:44;;;;;;;31.33;4.78;;;;;;;;;;5037007;28;20053;-66
2022/04/23 13:37:10;;;;;;;31.50;4.15;;;;;;;;;;5037800;28;20505;-68
2022/04/23 13:39:37;;;;;;;32.67;5.18;;;;;;;;;;5041226;28;20436;-70
2022/04/23 13:42:03;;;;;;;28.48;4.13;;;;;;;;;;5040659;28;20045;-69
2022/04/23 13:44:29;;;;;;;43.70;5.90;;;;;;;;;;5037056;28;20059;-67
2022/04/23 13:46:56;;;;;;;25.88;3.80;;;;;;;;;;5036760;28;20490;-67
2022/04/23 13:49:24;;;;;;;37.20;4.32;;;;;;;;;;5042374;28;20036;-67
2022/04/23 13:51:51;;;;;;;25.77;4.75;;;;;;;;;;5041473;28;20028;-68
2022/04/23 13:54:18;;;;;;;24.48;3.75;;;;;;;;;;5038446;28;20052;-68
2022/04/23 13:56:43;;;;;;;15.35;2.92;;;;;;;;;;5069509;28;20057;-67
2022/04/23 13:59:12;;;;;;;19.50;2.38;;;;;;;;;;5037955;28;20029;-67
2022/04/23 14:01:39;;;;;;;18.13;3.30;;;;;;;;;;5039887;28;20048;-67
2022/04/23 14:12:20;;;;;;;21.90;2.92;;;;;;;;;;5043810;28;20044;-65
2022/04/23 14:14:45;;;;;;;17.30;2.67;;;;;;;;;;5039154;28;20025;-66
2022/04/23 14:17:11;;;;;;;18.45;2.30;;;;;;;;;;5041219;28;20488;-65
2022/04/23 14:19:37;;;;;;;15.30;3.15;;;;;;;;;;5037199;28;20046;-66
2022/04/23 14:22:03;;;;;;;17.65;2.42;;;;;;;;;;5036353;28;20452;-66
2022/04/23 14:24:29;;;;;;;25.90;3.47;;;;;;;;;;5036520;28;20457;-67
2022/04/23 14:26:55;;;;;;;20.92;2.72;;;;;;;;;;5034797;28;20035;-66
2022/04/23 14:29:21;;;;;;;16.27;2.38;;;;;;;;;;5032245;28;20021;-66
2022/04/23 14:31:47;;;;;;;11.68;2.10;;;;;;;;;;5035168;28;20048;-66
2022/04/23 14:34:13;;;;;;;11.55;2.65;;;;;;;;;;5040386;28;20083;-65
2022/04/23 14:36:38;;;;;;;17.65;3.25;;;;;;;;;;5039955;28;20025;-66
2022/04/23 14:39:07;;;;;;;15.68;2.83;;;;;;;;;;5042168;28;20033;-66
2022/04/23 14:41:33;;;;;;;12.60;2.45;;;;;;;;;;5033314;28;20455;-67
2022/04/23 14:43:58;;;;;;;9.82;2.75;;;;;;;;;;5036065;28;20068;-66
2022/04/23 14:46:24;;;;;;;18.60;3.55;;;;;;;;;;5037868;28;20472;-67
2022/04/23 14:48:50;;;;;;;24.67;3.67;;;;;;;;;;5041062;28;20100;-68
2022/04/23 14:54:01;;;;;;;15.70;2.85;;;;;;;;;;5038050;28;20049;-68
2022/04/23 14:56:28;;;;;;;22.05;3.00;;;;;;;;;;5037784;28;20079;-67
2022/04/23 14:58:55;;;;;;;20.75;3.30;;;;;;;;;;5045359;28;20033;-67
2022/04/23 15:01:21;;;;;;;19.90;2.90;;;;;;;;;;5034825;28;20025;-68
2022/04/23 15:03:47;;;;;;;13.95;2.70;;;;;;;;;;5036142;28;20398;-67
2022/04/23 15:06:14;;;;;;;11.07;2.67;;;;;;;;;;5038437;28;20034;-67
2022/04/23 15:08:39;;;;;;;20.58;2.08;;;;;;;;;;5035788;28;20417;-67
2022/04/23 15:11:07;;;;;;;16.75;3.28;;;;;;;;;;5039179;28;20110;-67
2022/04/23 15:13:34;;;;;;;9.38;2.05;;;;;;;;;;5034786;28;20026;-67
2022/04/23 15:16:01;;;;;;;11.48;2.33;;;;;;;;;;5038914;28;20087;-67
2022/04/23 15:18:27;;;;;;;15.57;2.05;;;;;;;;;;5037055;28;20029;-68
2022/04/23 15:20:53;;;;;;;12.70;2.30;;;;;;;;;;5039525;28;20033;-67
2022/04/23 15:23:19;;;;;;;12.93;2.85;;;;;;;;;;5035148;28;20358;-68
2022/04/23 15:25:45;;;;;;;11.60;2.30;;;;;;;;;;5033270;28;20028;-68
2022/04/23 15:28:11;;;;;;;13.38;2.25;;;;;;;;;;5040846;28;20033;-68
2022/04/23 15:30:37;;;;;;;11.20;1.92;;;;;;;;;;5043721;28;20106;-67
2022/04/23 15:33:03;;;;;;;14.82;1.63;;;;;;;;;;5039796;28;20029;-67